SPHI

Capitan FAP Jose A Quinones Gonzales International Airport

Chiclayo, Peru
SPHI 200500Z 2006/2106 18008KT 9999 SCT020 BKN100 TX31/2019Z TN20/2011Z BECMG 2017/2019 18018KT CAVOK FM210200 18012KT 9999 SCT020 BKN100
Issued Valid From Valid To
Jan-20 @ 05:00 UTC
(6 hours ago)
Jan-20 @ 06:00 UTC
(5 hours ago)
Jan-21 @ 06:00 UTC
(in 19 hours)
Jan-20 @ 06:00 to Jan-20 @ 17:00
SPHI 200500Z 2006/2106 18008KT 9999 SCT020 BKN100 TX31/2019Z TN20/2011Z
Wind Visibility Clouds
180° at 8 knots 10,000+ meters
  • Scattered at 2,000' AGL
  • Broken at 10,000' AGL
Becoming Jan-20 @ 17:00 to Jan-21 @ 02:00
BECMG 2017/2019 18018KT CAVOK
Wind Visibility Clouds Conditions
180° at 18 knots 10,000+ meters
  • No significant clouds
From Jan-21 @ 02:00 to Jan-21 @ 06:00
FM210200 18012KT 9999 SCT020 BKN100
Wind Visibility Clouds
180° at 12 knots 10,000+ meters
  • Scattered at 2,000' AGL
  • Broken at 10,000' AGL
SPHI 200500Z 2006/2106 18008KT 9999 SCT020 BKN100 TX31/2019Z TN20/2011Z BECMG 2017/2019 18018KT CAVOK FM210200 18012KT 9999 SCT020 BKN100
Issued Jan-20 @ 05:00 UTC
(6 hours ago)
Valid From Jan-20 @ 06:00 UTC
(5 hours ago)
Valid To Jan-21 @ 06:00 UTC
(in 19 hours)
Jan-20 @ 06:00 - Jan-20 @ 17:00
Wind Visibility
180° at 8 knots 10,000+ meters
Clouds
  • Scattered at 2,000' AGL
  • Broken at 10,000' AGL
Becoming Jan-20 @ 17:00 - Jan-21 @ 02:00
Wind Visibility
180° at 18 knots 10,000+ meters
Clouds
  • No significant clouds
Conditions
From Jan-21 @ 02:00 - Jan-21 @ 06:00
Wind Visibility
180° at 12 knots 10,000+ meters
Clouds
  • Scattered at 2,000' AGL
  • Broken at 10,000' AGL